createdAt,value
2022-07-28T00:09:37.307Z,979.20
2022-07-28T00:21:37.715Z,979.04
2022-07-28T00:33:38.179Z,979.04
2022-07-28T00:45:38.662Z,979.13
2022-07-28T00:57:39.097Z,979.04
2022-07-28T01:09:39.543Z,979.03
2022-07-28T01:21:40.033Z,978.95
2022-07-28T01:33:40.471Z,978.88
2022-07-28T01:45:40.924Z,978.81
2022-07-28T01:57:41.345Z,978.74
2022-07-28T02:09:41.820Z,978.67
2022-07-28T02:21:42.310Z,978.71
2022-07-28T02:33:58.466Z,978.63
2022-07-28T02:45:43.179Z,978.65
2022-07-28T02:57:43.651Z,978.73
2022-07-28T03:09:44.106Z,978.75
2022-07-28T03:21:44.541Z,978.89
2022-07-28T03:33:44.999Z,979.05
2022-07-28T03:45:46.721Z,979.22
2022-07-28T03:57:45.941Z,979.22
2022-07-28T04:09:46.350Z,979.36
2022-07-28T04:21:46.783Z,979.53
2022-07-28T04:33:47.244Z,979.55
2022-07-28T04:45:53.210Z,979.64
2022-07-28T04:57:48.197Z,979.76
2022-07-28T05:09:48.635Z,979.90
2022-07-28T05:21:49.100Z,979.98
2022-07-28T05:33:49.565Z,979.99
2022-07-28T05:45:50.056Z,979.92
2022-07-28T05:57:50.420Z,979.82
2022-07-28T06:09:50.893Z,979.93
2022-07-28T06:21:51.388Z,979.94
2022-07-28T06:33:51.803Z,979.93
2022-07-28T06:45:52.264Z,980.08
2022-07-28T06:57:52.726Z,980.01
2022-07-28T07:09:53.218Z,980.05
2022-07-28T07:21:53.622Z,979.88
2022-07-28T07:33:54.066Z,979.82
2022-07-28T07:45:54.523Z,979.80
2022-07-28T07:57:55.034Z,979.78
2022-07-28T08:09:55.485Z,979.76
2022-07-28T08:21:55.920Z,979.86
2022-07-28T08:33:56.387Z,979.89
2022-07-28T08:45:58.680Z,979.92
2022-07-28T08:57:57.271Z,979.89
2022-07-28T09:09:57.815Z,979.67
2022-07-28T09:21:58.179Z,979.54
2022-07-28T09:33:58.666Z,979.63
2022-07-28T09:45:59.127Z,979.64
2022-07-28T09:57:59.577Z,979.60
2022-07-28T10:09:59.995Z,979.47
2022-07-28T10:22:00.478Z,979.30
2022-07-28T10:34:00.945Z,979.26
2022-07-28T10:46:06.935Z,979.23
2022-07-28T10:58:11.358Z,979.11
2022-07-28T11:10:02.326Z,978.97
2022-07-28T11:22:02.762Z,978.98
2022-07-28T11:34:03.211Z,978.81
2022-07-28T11:46:03.733Z,978.91
2022-07-28T11:58:04.133Z,978.79
2022-07-28T12:10:04.575Z,978.79
2022-07-28T12:22:05.028Z,978.64
2022-07-28T12:34:05.498Z,978.62
2022-07-28T12:46:06.025Z,978.46
2022-07-28T12:58:06.435Z,978.43
2022-07-28T13:10:06.838Z,978.27
2022-07-28T13:22:09.153Z,978.25
2022-07-28T13:34:07.805Z,978.22
2022-07-28T13:46:08.267Z,978.02
2022-07-28T13:58:09.035Z,977.91
2022-07-28T14:10:09.166Z,977.78
2022-07-28T14:22:13.863Z,977.71
2022-07-28T14:34:10.259Z,977.72
2022-07-28T14:46:16.164Z,977.64
2022-07-28T14:58:10.934Z,977.55
2022-07-28T15:10:11.464Z,977.51
2022-07-28T15:22:11.872Z,977.39
2022-07-28T15:34:12.674Z,977.37
2022-07-28T15:46:13.093Z,977.29
2022-07-28T15:58:13.297Z,977.15
2022-07-28T16:10:13.730Z,977.14
2022-07-28T16:22:14.190Z,977.00
2022-07-28T16:34:14.885Z,976.95
2022-07-28T16:46:15.136Z,976.97
2022-07-28T16:58:15.558Z,977.00
2022-07-28T17:10:20.478Z,976.95
2022-07-28T17:22:16.463Z,977.05
2022-07-28T17:34:17.394Z,976.93
2022-07-28T17:46:17.398Z,977.00
2022-07-28T17:58:17.808Z,976.99
2022-07-28T18:10:18.286Z,977.13
2022-07-28T18:22:18.784Z,977.03
2022-07-28T18:34:19.384Z,977.26
2022-07-28T18:46:19.708Z,977.48
2022-07-28T18:58:20.095Z,977.54
2022-07-28T19:10:20.582Z,977.60
2022-07-28T19:22:21.039Z,977.72
2022-07-28T19:34:21.455Z,977.86
2022-07-28T19:46:22.000Z,977.99
2022-07-28T19:58:22.412Z,978.04
2022-07-28T20:10:22.853Z,978.00
2022-07-28T20:22:23.292Z,978.08
2022-07-28T20:34:23.744Z,978.12
2022-07-28T20:46:24.296Z,978.06
2022-07-28T20:58:24.671Z,978.24
2022-07-28T21:10:25.129Z,978.16
2022-07-28T21:22:25.569Z,978.22
2022-07-28T21:34:26.066Z,978.15
2022-07-28T21:46:26.549Z,978.26
2022-07-28T21:58:26.978Z,978.29
2022-07-28T22:10:27.403Z,978.47
2022-07-28T22:22:27.886Z,978.35
2022-07-28T22:34:28.323Z,978.29
2022-07-28T22:46:28.762Z,978.30
2022-07-28T22:58:29.247Z,978.22
2022-07-28T23:10:29.688Z,978.17
2022-07-28T23:22:30.124Z,978.10
2022-07-28T23:34:30.589Z,978.07
2022-07-28T23:46:31.075Z,978.00
2022-07-28T23:58:31.465Z,977.93
